Heat Index SAI AWOS Graphical Display Untitled Document
Bertrand Chaffee Hospital Heliport (2NK6) Springville, New York, USA
130
18:35
30/09/2016
16
19
080V160
30.22
N/A
1420
67(F), 19(C)
54(F), 12(C)
66 F
66%
BKN044 BKN050 BKN075
10
N/A
0"
N/A
18:35 zulu Wind 130 at 16 Knots, Gusting 19 Knots, Altimeter 30.22
METAR K2NK6 301835Z AUTO 13016G19KT 080V160 10SM BKN044 BKN050 BKN075 19/12 A3022 A02 P0000
METAR:
FAA Disclaimer--Advisory Use ONLY, not for flight info--
INFO:
Wind Direction:
Wind Speed:
Wind Gust:
Wind Variable:
Altimeter:
Dens Alt:
Elev:
Temp:
Dwpt:
Wind Chill
Rel Humidity:
Ceiling:
Visibility:
Prsnt Wea:
PCPN:
Remarks:
How to read the WebPage